sensor_id;sensor_type;location;lat;lon;timestamp;P1;durP1;ratioP1;P2;durP2;ratioP2
39322;SDS011;25036;53.638;10.134;2022-11-23T00:00:28;18.60;;;13.67;;
39322;SDS011;25036;53.638;10.134;2022-11-23T00:01:31;19.17;;;13.60;;
39322;SDS011;25036;53.638;10.134;2022-11-23T00:02:31;18.10;;;13.57;;
39322;SDS011;25036;53.638;10.134;2022-11-23T00:03:31;16.97;;;13.60;;
39322;SDS011;25036;53.638;10.134;2022-11-23T00:04:32;19.43;;;13.80;;
39322;SDS011;25036;53.638;10.134;2022-11-23T00:05:32;17.50;;;13.80;;
39322;SDS011;25036;53.638;10.134;2022-11-23T00:06:33;20.83;;;13.48;;
39322;SDS011;25036;53.638;10.134;2022-11-23T00:07:33;19.98;;;14.45;;
39322;SDS011;25036;53.638;10.134;2022-11-23T00:08:33;19.27;;;13.60;;
39322;SDS011;25036;53.638;10.134;2022-11-23T00:09:33;19.27;;;12.93;;
39322;SDS011;25036;53.638;10.134;2022-11-23T00:10:33;18.30;;;13.97;;
39322;SDS011;25036;53.638;10.134;2022-11-23T00:11:34;20.07;;;13.20;;
39322;SDS011;25036;53.638;10.134;2022-11-23T00:12:34;18.73;;;13.65;;
39322;SDS011;25036;53.638;10.134;2022-11-23T00:13:34;19.23;;;13.67;;
39322;SDS011;25036;53.638;10.134;2022-11-23T00:14:35;18.65;;;14.18;;
39322;SDS011;25036;53.638;10.134;2022-11-23T00:15:35;18.40;;;13.75;;
39322;SDS011;25036;53.638;10.134;2022-11-23T00:16:35;18.48;;;14.00;;
39322;SDS011;25036;53.638;10.134;2022-11-23T00:17:35;19.70;;;13.82;;
39322;SDS011;25036;53.638;10.134;2022-11-23T00:18:35;18.43;;;13.50;;
39322;SDS011;25036;53.638;10.134;2022-11-23T00:19:36;18.47;;;14.07;;
39322;SDS011;25036;53.638;10.134;2022-11-23T00:20:37;17.33;;;13.23;;
39322;SDS011;25036;53.638;10.134;2022-11-23T00:21:37;18.02;;;13.25;;
39322;SDS011;25036;53.638;10.134;2022-11-23T00:22:38;16.87;;;12.97;;
39322;SDS011;25036;53.638;10.134;2022-11-23T00:23:38;19.67;;;13.70;;
39322;SDS011;25036;53.638;10.134;2022-11-23T00:24:38;19.48;;;14.18;;
39322;SDS011;25036;53.638;10.134;2022-11-23T00:25:38;17.10;;;13.50;;
39322;SDS011;25036;53.638;10.134;2022-11-23T00:26:38;19.77;;;14.23;;
39322;SDS011;25036;53.638;10.134;2022-11-23T00:27:38;19.43;;;14.07;;
39322;SDS011;25036;53.638;10.134;2022-11-23T00:28:38;20.90;;;13.43;;
39322;SDS011;25036;53.638;10.134;2022-11-23T00:29:39;18.98;;;13.40;;
39322;SDS011;25036;53.638;10.134;2022-11-23T00:30:39;19.00;;;14.00;;
39322;SDS011;25036;53.638;10.134;2022-11-23T00:31:39;17.30;;;13.07;;
39322;SDS011;25036;53.638;10.134;2022-11-23T00:32:39;18.40;;;13.53;;
39322;SDS011;25036;53.638;10.134;2022-11-23T00:33:40;19.17;;;14.23;;
39322;SDS011;25036;53.638;10.134;2022-11-23T00:34:40;19.58;;;14.27;;
39322;SDS011;25036;53.638;10.134;2022-11-23T00:35:40;19.93;;;13.50;;
39322;SDS011;25036;53.638;10.134;2022-11-23T00:36:40;17.03;;;13.53;;
39322;SDS011;25036;53.638;10.134;2022-11-23T00:37:40;18.53;;;12.83;;
39322;SDS011;25036;53.638;10.134;2022-11-23T00:38:41;16.23;;;12.90;;
39322;SDS011;25036;53.638;10.134;2022-11-23T00:39:42;19.52;;;13.52;;
39322;SDS011;25036;53.638;10.134;2022-11-23T00:40:42;17.07;;;13.50;;
39322;SDS011;25036;53.638;10.134;2022-11-23T00:41:42;17.07;;;13.13;;
39322;SDS011;25036;53.638;10.134;2022-11-23T00:42:42;18.97;;;13.87;;
39322;SDS011;25036;53.638;10.134;2022-11-23T00:43:42;17.08;;;13.48;;
39322;SDS011;25036;53.638;10.134;2022-11-23T00:44:42;16.73;;;13.00;;
39322;SDS011;25036;53.638;10.134;2022-11-23T00:45:43;17.30;;;13.73;;
39322;SDS011;25036;53.638;10.134;2022-11-23T00:46:43;17.50;;;13.00;;
39322;SDS011;25036;53.638;10.134;2022-11-23T00:47:43;17.45;;;12.57;;
39322;SDS011;25036;53.638;10.134;2022-11-23T00:48:44;18.93;;;13.47;;
39322;SDS011;25036;53.638;10.134;2022-11-23T00:49:44;18.73;;;13.02;;
39322;SDS011;25036;53.638;10.134;2022-11-23T00:50:45;17.43;;;12.93;;
39322;SDS011;25036;53.638;10.134;2022-11-23T00:51:45;16.47;;;13.30;;
39322;SDS011;25036;53.638;10.134;2022-11-23T00:52:45;17.30;;;12.67;;
39322;SDS011;25036;53.638;10.134;2022-11-23T00:53:45;16.50;;;12.40;;
39322;SDS011;25036;53.638;10.134;2022-11-23T00:54:45;17.60;;;12.83;;
39322;SDS011;25036;53.638;10.134;2022-11-23T00:55:51;19.40;;;13.67;;
39322;SDS011;25036;53.638;10.134;2022-11-23T00:56:52;17.23;;;13.07;;
39322;SDS011;25036;53.638;10.134;2022-11-23T00:57:52;16.58;;;11.73;;
39322;SDS011;25036;53.638;10.134;2022-11-23T00:58:52;17.20;;;12.63;;
39322;SDS011;25036;53.638;10.134;2022-11-23T00:59:53;17.98;;;12.98;;
39322;SDS011;25036;53.638;10.134;2022-11-23T01:01:07;19.57;;;12.60;;
39322;SDS011;25036;53.638;10.134;2022-11-23T01:02:07;19.05;;;13.75;;
39322;SDS011;25036;53.638;10.134;2022-11-23T01:03:07;16.67;;;13.10;;
39322;SDS011;25036;53.638;10.134;2022-11-23T01:04:07;17.07;;;12.90;;
39322;SDS011;25036;53.638;10.134;2022-11-23T01:05:07;18.75;;;12.80;;
39322;SDS011;25036;53.638;10.134;2022-11-23T01:06:09;18.35;;;12.88;;
39322;SDS011;25036;53.638;10.134;2022-11-23T01:07:10;18.15;;;13.60;;
39322;SDS011;25036;53.638;10.134;2022-11-23T01:08:10;18.43;;;12.87;;
39322;SDS011;25036;53.638;10.134;2022-11-23T01:09:11;17.37;;;12.67;;
39322;SDS011;25036;53.638;10.134;2022-11-23T01:10:12;17.08;;;12.48;;
39322;SDS011;25036;53.638;10.134;2022-11-23T01:11:12;15.33;;;12.50;;
39322;SDS011;25036;53.638;10.134;2022-11-23T01:12:12;16.88;;;13.00;;
39322;SDS011;25036;53.638;10.134;2022-11-23T01:13:12;15.87;;;12.47;;
39322;SDS011;25036;53.638;10.134;2022-11-23T01:14:12;17.17;;;13.07;;
39322;SDS011;25036;53.638;10.134;2022-11-23T01:15:13;15.73;;;12.35;;
39322;SDS011;25036;53.638;10.134;2022-11-23T01:16:20;17.13;;;13.07;;
39322;SDS011;25036;53.638;10.134;2022-11-23T01:17:21;17.27;;;12.63;;
39322;SDS011;25036;53.638;10.134;2022-11-23T01:18:21;17.57;;;13.03;;
39322;SDS011;25036;53.638;10.134;2022-11-23T01:19:21;16.83;;;13.02;;
39322;SDS011;25036;53.638;10.134;2022-11-23T01:20:22;16.73;;;12.35;;
39322;SDS011;25036;53.638;10.134;2022-11-23T01:21:22;19.45;;;13.55;;
39322;SDS011;25036;53.638;10.134;2022-11-23T01:22:23;17.30;;;12.75;;
39322;SDS011;25036;53.638;10.134;2022-11-23T01:23:23;17.77;;;12.53;;
39322;SDS011;25036;53.638;10.134;2022-11-23T01:24:23;16.83;;;13.37;;
39322;SDS011;25036;53.638;10.134;2022-11-23T01:25:23;16.97;;;12.70;;
39322;SDS011;25036;53.638;10.134;2022-11-23T01:26:23;17.93;;;12.40;;
39322;SDS011;25036;53.638;10.134;2022-11-23T01:27:24;17.10;;;12.95;;
39322;SDS011;25036;53.638;10.134;2022-11-23T01:28:24;18.30;;;13.67;;
39322;SDS011;25036;53.638;10.134;2022-11-23T01:29:24;18.77;;;12.53;;
39322;SDS011;25036;53.638;10.134;2022-11-23T01:30:24;18.42;;;13.40;;
39322;SDS011;25036;53.638;10.134;2022-11-23T01:31:25;20.00;;;12.55;;
39322;SDS011;25036;53.638;10.134;2022-11-23T01:32:25;16.88;;;12.77;;
39322;SDS011;25036;53.638;10.134;2022-11-23T01:33:25;18.43;;;13.07;;
39322;SDS011;25036;53.638;10.134;2022-11-23T01:34:25;17.83;;;13.30;;
39322;SDS011;25036;53.638;10.134;2022-11-23T01:35:25;17.02;;;13.02;;
39322;SDS011;25036;53.638;10.134;2022-11-23T01:36:27;15.65;;;12.63;;
39322;SDS011;25036;53.638;10.134;2022-11-23T01:37:27;17.27;;;12.88;;
39322;SDS011;25036;53.638;10.134;2022-11-23T01:38:27;16.47;;;12.47;;
39322;SDS011;25036;53.638;10.134;2022-11-23T01:39:28;16.25;;;11.93;;
39322;SDS011;25036;53.638;10.134;2022-11-23T01:40:28;17.57;;;13.83;;
39322;SDS011;25036;53.638;10.134;2022-11-23T01:41:30;16.25;;;13.18;;
39322;SDS011;25036;53.638;10.134;2022-11-23T01:42:38;18.75;;;12.55;;
39322;SDS011;25036;53.638;10.134;2022-11-23T01:43:38;16.63;;;12.95;;
39322;SDS011;25036;53.638;10.134;2022-11-23T01:44:42;15.20;;;12.73;;
39322;SDS011;25036;53.638;10.134;2022-11-23T01:45:44;15.85;;;12.52;;
39322;SDS011;25036;53.638;10.134;2022-11-23T01:46:55;15.77;;;12.55;;
39322;SDS011;25036;53.638;10.134;2022-11-23T01:47:56;17.35;;;13.68;;
39322;SDS011;25036;53.638;10.134;2022-11-23T01:48:56;17.40;;;13.00;;
39322;SDS011;25036;53.638;10.134;2022-11-23T01:50:00;16.67;;;11.98;;
39322;SDS011;25036;53.638;10.134;2022-11-23T01:51:01;17.73;;;11.80;;
39322;SDS011;25036;53.638;10.134;2022-11-23T01:52:03;17.25;;;12.73;;
39322;SDS011;25036;53.638;10.134;2022-11-23T01:53:04;15.60;;;12.13;;
39322;SDS011;25036;53.638;10.134;2022-11-23T01:54:13;18.20;;;12.60;;
39322;SDS011;25036;53.638;10.134;2022-11-23T01:55:13;15.43;;;12.48;;
39322;SDS011;25036;53.638;10.134;2022-11-23T01:56:15;15.70;;;12.02;;
39322;SDS011;25036;53.638;10.134;2022-11-23T01:57:17;17.60;;;12.52;;
39322;SDS011;25036;53.638;10.134;2022-11-23T01:58:19;15.23;;;12.30;;
39322;SDS011;25036;53.638;10.134;2022-11-23T01:59:19;15.68;;;11.93;;
39322;SDS011;25036;53.638;10.134;2022-11-23T02:00:20;16.00;;;12.27;;
39322;SDS011;25036;53.638;10.134;2022-11-23T02:01:20;16.67;;;13.23;;
39322;SDS011;25036;53.638;10.134;2022-11-23T02:02:20;17.30;;;12.60;;
39322;SDS011;25036;53.638;10.134;2022-11-23T02:03:21;16.90;;;13.35;;
39322;SDS011;25036;53.638;10.134;2022-11-23T02:04:22;17.63;;;12.23;;
39322;SDS011;25036;53.638;10.134;2022-11-23T02:05:24;15.85;;;11.38;;
39322;SDS011;25036;53.638;10.134;2022-11-23T02:06:26;16.23;;;12.15;;
39322;SDS011;25036;53.638;10.134;2022-11-23T02:07:26;16.50;;;12.48;;
39322;SDS011;25036;53.638;10.134;2022-11-23T02:08:27;18.00;;;12.15;;
39322;SDS011;25036;53.638;10.134;2022-11-23T02:09:29;15.68;;;12.10;;
39322;SDS011;25036;53.638;10.134;2022-11-23T02:10:30;18.73;;;12.82;;
39322;SDS011;25036;53.638;10.134;2022-11-23T02:11:31;17.38;;;12.88;;
39322;SDS011;25036;53.638;10.134;2022-11-23T02:12:31;16.70;;;11.80;;
39322;SDS011;25036;53.638;10.134;2022-11-23T02:13:31;15.67;;;11.43;;
39322;SDS011;25036;53.638;10.134;2022-11-23T02:14:31;16.83;;;11.93;;
39322;SDS011;25036;53.638;10.134;2022-11-23T02:15:32;18.33;;;12.88;;
39322;SDS011;25036;53.638;10.134;2022-11-23T02:16:32;18.02;;;12.32;;
39322;SDS011;25036;53.638;10.134;2022-11-23T02:17:33;14.65;;;11.45;;
39322;SDS011;25036;53.638;10.134;2022-11-23T02:18:33;15.75;;;12.18;;
39322;SDS011;25036;53.638;10.134;2022-11-23T02:19:44;16.67;;;12.55;;
39322;SDS011;25036;53.638;10.134;2022-11-23T02:20:47;16.63;;;12.05;;
39322;SDS011;25036;53.638;10.134;2022-11-23T02:21:48;14.80;;;11.20;;
39322;SDS011;25036;53.638;10.134;2022-11-23T02:22:54;16.85;;;12.63;;
39322;SDS011;25036;53.638;10.134;2022-11-23T02:24:02;16.90;;;12.38;;
39322;SDS011;25036;53.638;10.134;2022-11-23T02:25:07;17.65;;;11.95;;
39322;SDS011;25036;53.638;10.134;2022-11-23T02:26:12;14.38;;;11.55;;
39322;SDS011;25036;53.638;10.134;2022-11-23T02:27:13;17.48;;;12.35;;
39322;SDS011;25036;53.638;10.134;2022-11-23T02:28:15;16.27;;;12.02;;
39322;SDS011;25036;53.638;10.134;2022-11-23T02:29:19;17.38;;;12.40;;
39322;SDS011;25036;53.638;10.134;2022-11-23T02:30:20;15.18;;;11.57;;
39322;SDS011;25036;53.638;10.134;2022-11-23T02:31:20;15.67;;;11.17;;
39322;SDS011;25036;53.638;10.134;2022-11-23T02:32:21;15.32;;;11.93;;
39322;SDS011;25036;53.638;10.134;2022-11-23T02:33:22;16.00;;;11.77;;
39322;SDS011;25036;53.638;10.134;2022-11-23T02:34:24;17.52;;;12.25;;
39322;SDS011;25036;53.638;10.134;2022-11-23T02:35:24;19.20;;;11.73;;
39322;SDS011;25036;53.638;10.134;2022-11-23T02:36:27;16.50;;;12.70;;
39322;SDS011;25036;53.638;10.134;2022-11-23T02:37:29;16.70;;;11.95;;
39322;SDS011;25036;53.638;10.134;2022-11-23T02:38:30;16.97;;;12.57;;
39322;SDS011;25036;53.638;10.134;2022-11-23T02:39:33;16.00;;;11.88;;
39322;SDS011;25036;53.638;10.134;2022-11-23T02:40:35;16.85;;;11.85;;
39322;SDS011;25036;53.638;10.134;2022-11-23T02:41:40;15.20;;;11.52;;
39322;SDS011;25036;53.638;10.134;2022-11-23T02:42:41;15.13;;;11.23;;
39322;SDS011;25036;53.638;10.134;2022-11-23T02:43:42;15.02;;;11.75;;
39322;SDS011;25036;53.638;10.134;2022-11-23T02:44:48;15.93;;;12.07;;
39322;SDS011;25036;53.638;10.134;2022-11-23T02:45:51;14.43;;;11.30;;
39322;SDS011;25036;53.638;10.134;2022-11-23T02:46:52;16.38;;;11.77;;
39322;SDS011;25036;53.638;10.134;2022-11-23T02:47:52;16.40;;;12.15;;
39322;SDS011;25036;53.638;10.134;2022-11-23T02:48:52;14.43;;;10.97;;
39322;SDS011;25036;53.638;10.134;2022-11-23T02:49:53;16.20;;;12.27;;
39322;SDS011;25036;53.638;10.134;2022-11-23T02:50:53;15.93;;;12.00;;
39322;SDS011;25036;53.638;10.134;2022-11-23T02:51:53;16.45;;;13.07;;
39322;SDS011;25036;53.638;10.134;2022-11-23T02:52:53;15.53;;;11.67;;
39322;SDS011;25036;53.638;10.134;2022-11-23T02:53:53;16.00;;;11.70;;
39322;SDS011;25036;53.638;10.134;2022-11-23T02:54:54;17.07;;;11.93;;
39322;SDS011;25036;53.638;10.134;2022-11-23T02:55:54;13.80;;;11.32;;
39322;SDS011;25036;53.638;10.134;2022-11-23T02:56:54;15.13;;;11.87;;
39322;SDS011;25036;53.638;10.134;2022-11-23T02:57:54;13.73;;;11.43;;
39322;SDS011;25036;53.638;10.134;2022-11-23T02:58:54;16.33;;;11.77;;
39322;SDS011;25036;53.638;10.134;2022-11-23T02:59:54;16.60;;;11.50;;
39322;SDS011;25036;53.638;10.134;2022-11-23T03:00:54;14.23;;;11.37;;
39322;SDS011;25036;53.638;10.134;2022-11-23T03:01:55;15.33;;;11.33;;
39322;SDS011;25036;53.638;10.134;2022-11-23T03:02:55;15.53;;;12.07;;
39322;SDS011;25036;53.638;10.134;2022-11-23T03:03:55;13.37;;;11.17;;
39322;SDS011;25036;53.638;10.134;2022-11-23T03:04:55;15.43;;;11.97;;
39322;SDS011;25036;53.638;10.134;2022-11-23T03:05:55;16.70;;;12.67;;
39322;SDS011;25036;53.638;10.134;2022-11-23T03:06:55;14.23;;;11.17;;
39322;SDS011;25036;53.638;10.134;2022-11-23T03:07:55;15.07;;;11.30;;
39322;SDS011;25036;53.638;10.134;2022-11-23T03:08:56;14.57;;;11.25;;
39322;SDS011;25036;53.638;10.134;2022-11-23T03:09:56;16.60;;;12.07;;
39322;SDS011;25036;53.638;10.134;2022-11-23T03:10:56;14.73;;;11.57;;
39322;SDS011;25036;53.638;10.134;2022-11-23T03:11:56;14.77;;;10.97;;
39322;SDS011;25036;53.638;10.134;2022-11-23T03:12:56;15.73;;;11.57;;
39322;SDS011;25036;53.638;10.134;2022-11-23T03:13:56;14.70;;;11.43;;
39322;SDS011;25036;53.638;10.134;2022-11-23T03:14:56;14.77;;;11.70;;
39322;SDS011;25036;53.638;10.134;2022-11-23T03:15:57;15.32;;;11.95;;
39322;SDS011;25036;53.638;10.134;2022-11-23T03:16:57;14.97;;;11.03;;
39322;SDS011;25036;53.638;10.134;2022-11-23T03:17:57;15.75;;;11.60;;
39322;SDS011;25036;53.638;10.134;2022-11-23T03:18:58;15.03;;;10.40;;
39322;SDS011;25036;53.638;10.134;2022-11-23T03:19:58;16.50;;;12.30;;
39322;SDS011;25036;53.638;10.134;2022-11-23T03:21:04;13.97;;;11.13;;
39322;SDS011;25036;53.638;10.134;2022-11-23T03:22:05;15.85;;;11.77;;
39322;SDS011;25036;53.638;10.134;2022-11-23T03:23:06;15.05;;;11.55;;
39322;SDS011;25036;53.638;10.134;2022-11-23T03:24:06;15.20;;;10.57;;
39322;SDS011;25036;53.638;10.134;2022-11-23T03:25:06;14.60;;;10.93;;
39322;SDS011;25036;53.638;10.134;2022-11-23T03:26:06;16.25;;;12.02;;
39322;SDS011;25036;53.638;10.134;2022-11-23T03:27:06;16.30;;;11.38;;
39322;SDS011;25036;53.638;10.134;2022-11-23T03:28:07;15.43;;;10.70;;
39322;SDS011;25036;53.638;10.134;2022-11-23T03:29:07;13.15;;;10.68;;
39322;SDS011;25036;53.638;10.134;2022-11-23T03:30:07;16.45;;;11.60;;
39322;SDS011;25036;53.638;10.134;2022-11-23T03:31:08;15.32;;;11.00;;
39322;SDS011;25036;53.638;10.134;2022-11-23T03:32:08;16.57;;;11.30;;
39322;SDS011;25036;53.638;10.134;2022-11-23T03:33:08;15.70;;;10.73;;
39322;SDS011;25036;53.638;10.134;2022-11-23T03:34:09;14.37;;;10.83;;
39322;SDS011;25036;53.638;10.134;2022-11-23T03:35:09;14.40;;;10.25;;
39322;SDS011;25036;53.638;10.134;2022-11-23T03:36:09;15.38;;;11.15;;
39322;SDS011;25036;53.638;10.134;2022-11-23T03:37:10;15.35;;;11.02;;
39322;SDS011;25036;53.638;10.134;2022-11-23T03:38:10;15.07;;;11.13;;
39322;SDS011;25036;53.638;10.134;2022-11-23T03:39:10;14.30;;;11.03;;
39322;SDS011;25036;53.638;10.134;2022-11-23T03:40:10;15.45;;;11.15;;
39322;SDS011;25036;53.638;10.134;2022-11-23T03:41:10;15.25;;;11.18;;
39322;SDS011;25036;53.638;10.134;2022-11-23T03:42:10;14.10;;;10.77;;
39322;SDS011;25036;53.638;10.134;2022-11-23T03:43:11;14.67;;;11.10;;
39322;SDS011;25036;53.638;10.134;2022-11-23T03:44:11;16.08;;;11.63;;
39322;SDS011;25036;53.638;10.134;2022-11-23T03:45:11;13.15;;;10.60;;
39322;SDS011;25036;53.638;10.134;2022-11-23T03:46:11;14.80;;;10.40;;
39322;SDS011;25036;53.638;10.134;2022-11-23T03:47:11;15.43;;;11.33;;
39322;SDS011;25036;53.638;10.134;2022-11-23T03:48:12;15.32;;;11.10;;
39322;SDS011;25036;53.638;10.134;2022-11-23T03:49:12;14.15;;;11.02;;
39322;SDS011;25036;53.638;10.134;2022-11-23T03:50:12;14.33;;;10.77;;
39322;SDS011;25036;53.638;10.134;2022-11-23T03:51:12;13.87;;;10.70;;
39322;SDS011;25036;53.638;10.134;2022-11-23T03:52:13;13.60;;;10.73;;
39322;SDS011;25036;53.638;10.134;2022-11-23T03:53:13;15.53;;;10.27;;
39322;SDS011;25036;53.638;10.134;2022-11-23T03:54:13;14.68;;;11.18;;
39322;SDS011;25036;53.638;10.134;2022-11-23T03:55:13;14.27;;;10.40;;
39322;SDS011;25036;53.638;10.134;2022-11-23T03:56:13;13.55;;;10.88;;
39322;SDS011;25036;53.638;10.134;2022-11-23T03:57:14;14.02;;;10.70;;
39322;SDS011;25036;53.638;10.134;2022-11-23T03:58:14;14.43;;;10.95;;
39322;SDS011;25036;53.638;10.134;2022-11-23T03:59:14;12.90;;;10.60;;
39322;SDS011;25036;53.638;10.134;2022-11-23T04:00:15;12.70;;;10.37;;
39322;SDS011;25036;53.638;10.134;2022-11-23T04:01:15;13.27;;;10.32;;
39322;SDS011;25036;53.638;10.134;2022-11-23T04:02:15;15.67;;;11.63;;
39322;SDS011;25036;53.638;10.134;2022-11-23T04:03:15;13.03;;;9.90;;
39322;SDS011;25036;53.638;10.134;2022-11-23T04:04:15;14.43;;;10.60;;
39322;SDS011;25036;53.638;10.134;2022-11-23T04:05:17;13.95;;;10.45;;
39322;SDS011;25036;53.638;10.134;2022-11-23T04:06:17;16.17;;;11.00;;
39322;SDS011;25036;53.638;10.134;2022-11-23T04:07:18;16.20;;;11.65;;
39322;SDS011;25036;53.638;10.134;2022-11-23T04:08:18;14.13;;;10.77;;
39322;SDS011;25036;53.638;10.134;2022-11-23T04:09:18;15.48;;;10.93;;
39322;SDS011;25036;53.638;10.134;2022-11-23T04:10:18;14.10;;;10.88;;
39322;SDS011;25036;53.638;10.134;2022-11-23T04:11:19;15.45;;;11.07;;
39322;SDS011;25036;53.638;10.134;2022-11-23T04:12:19;14.97;;;11.57;;
39322;SDS011;25036;53.638;10.134;2022-11-23T04:13:19;17.23;;;10.93;;
39322;SDS011;25036;53.638;10.134;2022-11-23T04:14:19;13.38;;;10.38;;
39322;SDS011;25036;53.638;10.134;2022-11-23T04:15:19;14.10;;;10.48;;
39322;SDS011;25036;53.638;10.134;2022-11-23T04:16:20;15.27;;;10.52;;
39322;SDS011;25036;53.638;10.134;2022-11-23T04:17:20;14.63;;;11.63;;
39322;SDS011;25036;53.638;10.134;2022-11-23T04:18:20;15.17;;;10.90;;
39322;SDS011;25036;53.638;10.134;2022-11-23T04:19:20;15.87;;;10.87;;
39322;SDS011;25036;53.638;10.134;2022-11-23T04:20:20;13.77;;;10.70;;
39322;SDS011;25036;53.638;10.134;2022-11-23T04:21:20;15.77;;;10.90;;
39322;SDS011;25036;53.638;10.134;2022-11-23T04:22:20;13.10;;;10.90;;
39322;SDS011;25036;53.638;10.134;2022-11-23T04:23:20;16.63;;;10.90;;
39322;SDS011;25036;53.638;10.134;2022-11-23T04:24:21;15.37;;;11.13;;
39322;SDS011;25036;53.638;10.134;2022-11-23T04:25:21;13.80;;;10.73;;
39322;SDS011;25036;53.638;10.134;2022-11-23T04:26:21;14.73;;;10.93;;
39322;SDS011;25036;53.638;10.134;2022-11-23T04:27:21;15.32;;;10.95;;
39322;SDS011;25036;53.638;10.134;2022-11-23T04:28:21;13.73;;;10.50;;
39322;SDS011;25036;53.638;10.134;2022-11-23T04:29:21;12.65;;;10.40;;
39322;SDS011;25036;53.638;10.134;2022-11-23T04:30:22;12.13;;;9.53;;
39322;SDS011;25036;53.638;10.134;2022-11-23T04:31:22;15.63;;;10.60;;
39322;SDS011;25036;53.638;10.134;2022-11-23T04:32:22;14.17;;;11.10;;
39322;SDS011;25036;53.638;10.134;2022-11-23T04:33:22;16.00;;;10.67;;
39322;SDS011;25036;53.638;10.134;2022-11-23T04:34:22;15.23;;;10.93;;
39322;SDS011;25036;53.638;10.134;2022-11-23T04:35:22;14.43;;;10.10;;
39322;SDS011;25036;53.638;10.134;2022-11-23T04:36:23;12.63;;;10.30;;
39322;SDS011;25036;53.638;10.134;2022-11-23T04:37:23;13.48;;;9.63;;
39322;SDS011;25036;53.638;10.134;2022-11-23T04:38:23;14.87;;;10.13;;
39322;SDS011;25036;53.638;10.134;2022-11-23T04:39:23;13.17;;;10.13;;
39322;SDS011;25036;53.638;10.134;2022-11-23T04:40:23;15.27;;;10.47;;
39322;SDS011;25036;53.638;10.134;2022-11-23T04:41:24;14.00;;;10.38;;
39322;SDS011;25036;53.638;10.134;2022-11-23T04:42:24;13.10;;;9.73;;
39322;SDS011;25036;53.638;10.134;2022-11-23T04:43:24;13.33;;;10.07;;
39322;SDS011;25036;53.638;10.134;2022-11-23T04:44:24;13.77;;;10.45;;
39322;SDS011;25036;53.638;10.134;2022-11-23T04:45:24;14.45;;;10.60;;
39322;SDS011;25036;53.638;10.134;2022-11-23T04:46:25;14.50;;;10.50;;
39322;SDS011;25036;53.638;10.134;2022-11-23T04:47:25;13.30;;;9.63;;
39322;SDS011;25036;53.638;10.134;2022-11-23T04:48:25;14.93;;;10.83;;
39322;SDS011;25036;53.638;10.134;2022-11-23T04:49:25;14.20;;;9.93;;
39322;SDS011;25036;53.638;10.134;2022-11-23T04:50:25;13.55;;;9.98;;
39322;SDS011;25036;53.638;10.134;2022-11-23T04:51:25;14.53;;;10.40;;
39322;SDS011;25036;53.638;10.134;2022-11-23T04:52:25;12.23;;;9.48;;
39322;SDS011;25036;53.638;10.134;2022-11-23T04:53:26;14.00;;;9.60;;
39322;SDS011;25036;53.638;10.134;2022-11-23T04:54:26;13.60;;;10.03;;
39322;SDS011;25036;53.638;10.134;2022-11-23T04:55:26;12.07;;;9.50;;
39322;SDS011;25036;53.638;10.134;2022-11-23T04:56:26;12.83;;;10.03;;
39322;SDS011;25036;53.638;10.134;2022-11-23T04:57:26;12.70;;;9.47;;
39322;SDS011;25036;53.638;10.134;2022-11-23T04:58:26;13.47;;;9.60;;
39322;SDS011;25036;53.638;10.134;2022-11-23T04:59:26;13.97;;;10.70;;
39322;SDS011;25036;53.638;10.134;2022-11-23T05:00:26;11.80;;;9.67;;
39322;SDS011;25036;53.638;10.134;2022-11-23T05:01:27;13.30;;;10.27;;
39322;SDS011;25036;53.638;10.134;2022-11-23T05:02:27;11.17;;;9.50;;
39322;SDS011;25036;53.638;10.134;2022-11-23T05:03:27;11.90;;;9.13;;
39322;SDS011;25036;53.638;10.134;2022-11-23T05:04:27;13.27;;;9.88;;
39322;SDS011;25036;53.638;10.134;2022-11-23T05:05:27;13.23;;;9.30;;
39322;SDS011;25036;53.638;10.134;2022-11-23T05:06:28;12.77;;;9.68;;
39322;SDS011;25036;53.638;10.134;2022-11-23T05:07:28;12.00;;;10.17;;
39322;SDS011;25036;53.638;10.134;2022-11-23T05:08:28;12.13;;;9.37;;
39322;SDS011;25036;53.638;10.134;2022-11-23T05:09:28;13.48;;;9.38;;
39322;SDS011;25036;53.638;10.134;2022-11-23T05:10:29;10.53;;;8.73;;
39322;SDS011;25036;53.638;10.134;2022-11-23T05:11:29;14.00;;;9.83;;
39322;SDS011;25036;53.638;10.134;2022-11-23T05:12:29;13.10;;;9.50;;
39322;SDS011;25036;53.638;10.134;2022-11-23T05:13:29;12.90;;;9.32;;
39322;SDS011;25036;53.638;10.134;2022-11-23T05:14:29;15.83;;;9.70;;
39322;SDS011;25036;53.638;10.134;2022-11-23T05:15:29;12.30;;;9.57;;
39322;SDS011;25036;53.638;10.134;2022-11-23T05:16:29;12.80;;;9.33;;
39322;SDS011;25036;53.638;10.134;2022-11-23T05:17:29;12.40;;;8.73;;
39322;SDS011;25036;53.638;10.134;2022-11-23T05:18:30;12.30;;;9.30;;
39322;SDS011;25036;53.638;10.134;2022-11-23T05:19:30;11.07;;;9.02;;
39322;SDS011;25036;53.638;10.134;2022-11-23T05:20:30;13.20;;;8.20;;
39322;SDS011;25036;53.638;10.134;2022-11-23T05:21:30;12.27;;;8.67;;
39322;SDS011;25036;53.638;10.134;2022-11-23T05:22:30;11.60;;;8.43;;
39322;SDS011;25036;53.638;10.134;2022-11-23T05:23:30;12.33;;;9.00;;
39322;SDS011;25036;53.638;10.134;2022-11-23T05:24:30;11.48;;;8.75;;
39322;SDS011;25036;53.638;10.134;2022-11-23T05:25:31;10.43;;;8.65;;
39322;SDS011;25036;53.638;10.134;2022-11-23T05:26:31;11.50;;;9.63;;
39322;SDS011;25036;53.638;10.134;2022-11-23T05:27:31;12.13;;;9.40;;
39322;SDS011;25036;53.638;10.134;2022-11-23T05:28:32;13.82;;;9.02;;
39322;SDS011;25036;53.638;10.134;2022-11-23T05:29:32;11.97;;;9.33;;
39322;SDS011;25036;53.638;10.134;2022-11-23T05:30:32;13.67;;;8.93;;
39322;SDS011;25036;53.638;10.134;2022-11-23T05:31:32;13.17;;;9.53;;
39322;SDS011;25036;53.638;10.134;2022-11-23T05:32:32;13.02;;;8.43;;
39322;SDS011;25036;53.638;10.134;2022-11-23T05:33:32;12.17;;;8.70;;
39322;SDS011;25036;53.638;10.134;2022-11-23T05:34:32;13.47;;;9.03;;
39322;SDS011;25036;53.638;10.134;2022-11-23T05:35:32;10.90;;;8.70;;
39322;SDS011;25036;53.638;10.134;2022-11-23T05:36:34;10.35;;;8.15;;
39322;SDS011;25036;53.638;10.134;2022-11-23T05:37:34;12.53;;;8.47;;
39322;SDS011;25036;53.638;10.134;2022-11-23T05:38:34;10.65;;;8.23;;
39322;SDS011;25036;53.638;10.134;2022-11-23T05:39:34;10.73;;;8.13;;
39322;SDS011;25036;53.638;10.134;2022-11-23T05:40:35;11.53;;;8.50;;
39322;SDS011;25036;53.638;10.134;2022-11-23T05:41:35;13.47;;;7.93;;
39322;SDS011;25036;53.638;10.134;2022-11-23T05:42:35;15.23;;;9.67;;
39322;SDS011;25036;53.638;10.134;2022-11-23T05:43:35;12.10;;;9.20;;
39322;SDS011;25036;53.638;10.134;2022-11-23T05:44:35;11.57;;;8.43;;
39322;SDS011;25036;53.638;10.134;2022-11-23T05:45:35;12.48;;;8.55;;
39322;SDS011;25036;53.638;10.134;2022-11-23T05:46:35;12.53;;;9.70;;
39322;SDS011;25036;53.638;10.134;2022-11-23T05:47:35;11.40;;;9.30;;
39322;SDS011;25036;53.638;10.134;2022-11-23T05:48:36;19.30;;;9.53;;
39322;SDS011;25036;53.638;10.134;2022-11-23T05:49:36;11.02;;;8.88;;
39322;SDS011;25036;53.638;10.134;2022-11-23T05:50:36;10.57;;;8.10;;